createdAt,value
2023-03-11T00:01:34.383Z,42.35
2023-03-11T00:05:39.058Z,42.57
2023-03-11T00:09:40.449Z,42.66
2023-03-11T00:13:41.796Z,42.92
2023-03-11T00:17:43.309Z,42.18
2023-03-11T00:21:44.636Z,41.64
2023-03-11T00:25:46.891Z,41.42
2023-03-11T00:29:48.223Z,42.99
2023-03-11T00:33:49.608Z,42.64
2023-03-11T00:37:55.101Z,42.95
2023-03-11T00:41:56.641Z,42.52
2023-03-11T00:45:57.986Z,43.02
2023-03-11T00:49:59.781Z,43.43
2023-03-11T00:54:01.343Z,42.76
2023-03-11T00:58:05.455Z,43.75
2023-03-11T01:02:06.765Z,43.50
2023-03-11T01:06:08.779Z,42.71
2023-03-11T01:10:11.156Z,43.55
2023-03-11T01:14:12.622Z,42.42
2023-03-11T01:18:14.201Z,42.54
2023-03-11T01:22:16.041Z,42.20
2023-03-11T01:26:17.428Z,40.65
2023-03-11T01:30:21.947Z,40.92
2023-03-11T01:34:23.265Z,41.16
2023-03-11T01:38:24.578Z,41.48
2023-03-11T01:42:25.878Z,40.70
2023-03-11T01:46:31.223Z,41.06
2023-03-11T01:50:36.905Z,40.86
2023-03-11T01:54:40.612Z,40.44
2023-03-11T01:58:46.251Z,41.13
2023-03-11T02:02:52.794Z,40.92
2023-03-11T02:06:56.153Z,41.53
2023-03-11T02:10:57.707Z,40.40
2023-03-11T02:15:00.456Z,40.58
2023-03-11T02:19:26.767Z,40.39
2023-03-11T02:23:36.536Z,41.03
2023-03-11T02:27:42.148Z,40.75
2023-03-11T02:31:44.210Z,40.67
2023-03-11T02:35:45.721Z,40.11
2023-03-11T02:39:51.080Z,40.48
2023-03-11T02:43:52.714Z,40.43
2023-03-11T02:47:56.425Z,40.14
2023-03-11T02:51:57.829Z,39.97
2023-03-11T02:55:59.264Z,40.04
2023-03-11T03:00:06.384Z,39.30
2023-03-11T03:04:07.809Z,39.53
2023-03-11T03:08:09.265Z,39.46
2023-03-11T03:12:10.659Z,39.42
2023-03-11T03:16:12.519Z,39.58
2023-03-11T03:20:14.751Z,39.69
2023-03-11T03:24:16.278Z,39.72
2023-03-11T03:28:17.661Z,39.71
2023-03-11T03:32:19.011Z,39.48
2023-03-11T03:36:20.373Z,39.45
2023-03-11T03:40:21.903Z,39.41
2023-03-11T03:44:23.228Z,39.46
2023-03-11T03:48:24.754Z,40.26
2023-03-11T03:52:26.113Z,40.16
2023-03-11T03:56:27.393Z,40.25
2023-03-11T04:00:28.735Z,39.62
2023-03-11T04:04:30.658Z,40.40
2023-03-11T04:08:31.989Z,39.88
2023-03-11T04:12:33.318Z,39.75
2023-03-11T04:16:34.764Z,40.35
2023-03-11T04:20:38.678Z,40.00
2023-03-11T04:24:40.026Z,39.59
2023-03-11T04:28:41.832Z,40.00
2023-03-11T04:32:43.436Z,39.24
2023-03-11T04:36:44.834Z,39.52
2023-03-11T04:40:46.217Z,39.06
2023-03-11T04:44:47.642Z,39.50
2023-03-11T04:48:49.087Z,39.45
2023-03-11T04:52:50.491Z,39.80
2023-03-11T04:56:51.852Z,39.66
2023-03-11T05:00:53.326Z,39.64
2023-03-11T05:04:54.759Z,39.78
2023-03-11T05:08:56.152Z,40.07
2023-03-11T05:12:57.427Z,40.16
2023-03-11T05:16:58.872Z,39.80
2023-03-11T05:21:00.237Z,39.56
2023-03-11T05:25:01.643Z,40.11
2023-03-11T05:29:02.958Z,39.69
2023-03-11T05:33:04.374Z,39.81
2023-03-11T05:37:05.938Z,39.54
2023-03-11T05:41:07.366Z,39.75
2023-03-11T05:45:09.921Z,40.06
2023-03-11T05:49:11.318Z,39.60
2023-03-11T05:53:12.737Z,39.59
2023-03-11T05:57:14.098Z,39.51
2023-03-11T06:01:17.567Z,39.67
2023-03-11T06:05:19.111Z,39.40
2023-03-11T06:09:20.536Z,39.21
2023-03-11T06:13:21.899Z,39.10
2023-03-11T06:17:23.314Z,38.99
2023-03-11T06:21:26.633Z,39.46
2023-03-11T06:25:28.011Z,39.24
2023-03-11T06:29:29.950Z,39.08
2023-03-11T06:33:31.251Z,38.43
2023-03-11T06:37:36.905Z,38.37
2023-03-11T06:41:38.190Z,38.06
2023-03-11T06:45:39.525Z,38.27
2023-03-11T06:49:42.576Z,38.30
2023-03-11T06:53:47.904Z,37.71
2023-03-11T06:57:49.312Z,37.62
2023-03-11T07:01:50.660Z,37.88
2023-03-11T07:05:52.128Z,37.55
2023-03-11T07:09:55.919Z,37.56
2023-03-11T07:13:57.289Z,37.28
2023-03-11T07:17:58.832Z,36.93
2023-03-11T07:22:00.346Z,36.52
2023-03-11T07:26:02.015Z,35.88
2023-03-11T07:30:03.653Z,36.17
2023-03-11T07:34:11.157Z,35.92
2023-03-11T07:38:12.577Z,36.03
2023-03-11T07:42:13.876Z,35.06
2023-03-11T07:46:18.450Z,35.26
2023-03-11T07:50:22.186Z,35.06
2023-03-11T07:54:23.620Z,32.32
2023-03-11T07:58:25.786Z,31.27
2023-03-11T08:02:27.304Z,30.06
2023-03-11T08:06:31.307Z,28.42
2023-03-11T08:10:32.730Z,28.71
2023-03-11T08:14:34.077Z,29.32
2023-03-11T08:18:35.450Z,27.65
2023-03-11T08:22:38.105Z,28.52
2023-03-11T08:26:42.814Z,26.86
2023-03-11T08:30:44.132Z,27.40
2023-03-11T08:34:45.596Z,26.31
2023-03-11T08:38:47.261Z,27.65
2023-03-11T08:42:49.245Z,26.01
2023-03-11T08:46:50.717Z,25.11
2023-03-11T08:50:54.633Z,24.86
2023-03-11T08:54:57.255Z,23.41
2023-03-11T08:58:58.711Z,23.12
2023-03-11T09:03:00.241Z,22.14
2023-03-11T09:07:01.629Z,21.70
2023-03-11T09:11:03.257Z,20.67
2023-03-11T09:15:05.789Z,20.58
2023-03-11T09:19:07.561Z,19.78
2023-03-11T09:23:11.120Z,18.99
2023-03-11T09:27:13.110Z,19.70
2023-03-11T09:31:15.781Z,20.75
2023-03-11T09:35:17.235Z,19.57
2023-03-11T09:39:18.760Z,24.06
2023-03-11T09:43:39.881Z,23.89
2023-03-11T09:48:07.832Z,21.86
2023-03-11T09:52:15.064Z,23.94
2023-03-11T09:56:22.230Z,25.52
2023-03-11T10:00:24.892Z,26.19
2023-03-11T10:04:34.113Z,20.26
2023-03-11T10:08:44.067Z,18.35
2023-03-11T10:13:28.631Z,20.88
2023-03-11T10:17:39.355Z,18.11
2023-03-11T10:21:58.327Z,19.36
2023-03-11T10:26:21.693Z,18.29
2023-03-11T10:30:33.729Z,15.58
2023-03-11T10:34:50.604Z,16.04
2023-03-11T10:38:53.882Z,15.76
2023-03-11T10:42:58.149Z,14.91
2023-03-11T10:46:59.685Z,15.77
2023-03-11T10:51:16.139Z,16.90
2023-03-11T10:55:19.908Z,17.92
2023-03-11T10:59:32.085Z,18.56
2023-03-11T11:03:34.688Z,19.96
2023-03-11T11:07:41.061Z,18.78
2023-03-11T11:12:00.344Z,21.93
2023-03-11T11:16:05.352Z,20.59
2023-03-11T11:20:17.972Z,20.32
2023-03-11T11:24:27.494Z,19.16
2023-03-11T11:28:28.999Z,20.19
2023-03-11T11:32:30.348Z,20.19
2023-03-11T11:36:35.729Z,21.11
2023-03-11T11:40:37.494Z,20.63
2023-03-11T11:44:40.161Z,21.30
2023-03-11T11:49:10.427Z,22.34
2023-03-11T11:53:24.970Z,22.47
2023-03-11T11:57:26.435Z,22.50
2023-03-11T12:01:48.886Z,21.91
2023-03-11T12:05:58.968Z,22.25
2023-03-11T12:10:24.306Z,22.64
2023-03-11T12:14:34.942Z,21.99
2023-03-11T12:18:50.172Z,21.67
2023-03-11T12:23:28.953Z,22.65
2023-03-11T12:27:36.082Z,22.85
2023-03-11T12:31:40.691Z,22.53
2023-03-11T12:35:49.747Z,22.50
2023-03-11T12:39:51.137Z,23.03
2023-03-11T12:43:52.393Z,23.53
2023-03-11T12:48:27.718Z,22.51
2023-03-11T12:52:30.032Z,22.55
2023-03-11T12:56:54.205Z,22.48
2023-03-11T13:01:23.191Z,22.64
2023-03-11T13:05:33.170Z,22.87
2023-03-11T13:09:34.902Z,22.73
2023-03-11T13:13:40.552Z,22.91
2023-03-11T13:17:42.000Z,23.10
2023-03-11T13:21:43.396Z,22.16
2023-03-11T13:26:10.773Z,21.70
2023-03-11T13:30:22.236Z,21.09
2023-03-11T13:34:40.412Z,21.91
2023-03-11T13:38:57.406Z,21.50
2023-03-11T13:43:05.483Z,21.83
2023-03-11T13:47:18.472Z,22.71
2023-03-11T13:51:32.228Z,22.92
2023-03-11T13:55:43.049Z,22.68
2023-03-11T13:59:44.353Z,22.63
2023-03-11T14:03:47.473Z,23.83
2023-03-11T14:07:48.877Z,23.66
2023-03-11T14:11:53.208Z,23.64
2023-03-11T14:16:00.389Z,24.00
2023-03-11T14:20:06.982Z,24.50
2023-03-11T14:24:17.073Z,24.26
2023-03-11T14:28:20.334Z,24.16
2023-03-11T14:32:31.244Z,23.90
2023-03-11T14:36:44.801Z,24.14
2023-03-11T14:40:55.312Z,24.36
2023-03-11T14:45:17.849Z,24.03
2023-03-11T14:49:23.079Z,24.05
2023-03-11T14:53:30.198Z,23.88
2023-03-11T14:57:39.564Z,24.81
2023-03-11T15:01:43.920Z,25.52
2023-03-11T15:06:06.925Z,25.26
2023-03-11T15:10:11.880Z,24.98
2023-03-11T15:14:25.068Z,24.93
2023-03-11T15:18:39.036Z,25.43
2023-03-11T15:22:40.964Z,24.83
2023-03-11T15:26:52.083Z,24.48
2023-03-11T15:31:33.548Z,24.60
2023-03-11T15:35:46.338Z,24.55
2023-03-11T15:39:52.066Z,24.16
2023-03-11T15:43:54.735Z,24.49
2023-03-11T15:47:56.066Z,24.56
2023-03-11T15:52:01.268Z,25.03
2023-03-11T15:56:11.282Z,24.98
2023-03-11T16:00:22.474Z,24.94
2023-03-11T16:04:24.005Z,24.89
2023-03-11T16:08:25.671Z,25.02
2023-03-11T16:12:27.015Z,25.11
2023-03-11T16:16:28.483Z,25.24
2023-03-11T16:20:36.694Z,24.98
2023-03-11T16:24:38.004Z,25.12
2023-03-11T16:28:40.243Z,24.58
2023-03-11T16:32:42.653Z,25.15
2023-03-11T16:36:44.091Z,25.74
2023-03-11T16:40:45.370Z,25.79
2023-03-11T16:44:46.703Z,25.60
2023-03-11T16:48:48.094Z,25.05
2023-03-11T16:52:49.937Z,25.06
2023-03-11T16:56:51.262Z,25.97
2023-03-11T17:00:52.626Z,26.28
2023-03-11T17:04:54.034Z,26.41
2023-03-11T17:08:55.410Z,26.31
2023-03-11T17:12:56.901Z,26.22
2023-03-11T17:16:58.829Z,26.36
2023-03-11T17:21:02.111Z,26.85
2023-03-11T17:25:03.971Z,26.76
2023-03-11T17:29:05.659Z,26.93
2023-03-11T17:33:07.027Z,27.10
2023-03-11T17:37:08.936Z,26.77
2023-03-11T17:41:17.243Z,26.95
2023-03-11T17:45:18.622Z,27.10
2023-03-11T17:49:20.032Z,27.10
2023-03-11T17:53:21.335Z,27.90
2023-03-11T17:57:25.021Z,28.06
2023-03-11T18:01:27.964Z,28.53
2023-03-11T18:05:29.321Z,27.61
2023-03-11T18:09:30.749Z,27.92
2023-03-11T18:13:33.361Z,27.60
2023-03-11T18:17:35.358Z,27.92
2023-03-11T18:21:36.825Z,27.25
2023-03-11T18:25:38.133Z,27.85
2023-03-11T18:29:39.573Z,27.97
2023-03-11T18:33:42.819Z,28.54
2023-03-11T18:37:44.133Z,28.63
2023-03-11T18:41:45.464Z,28.22
2023-03-11T18:45:46.847Z,28.04
2023-03-11T18:49:48.265Z,28.66
2023-03-11T18:53:49.580Z,28.80
2023-03-11T18:57:53.179Z,28.80
2023-03-11T19:01:54.970Z,28.55
2023-03-11T19:05:56.396Z,29.08
2023-03-11T19:09:57.876Z,29.20
2023-03-11T19:13:59.917Z,29.44
2023-03-11T19:18:06.985Z,29.15
2023-03-11T19:22:08.708Z,29.25
2023-03-11T19:26:10.124Z,29.17
2023-03-11T19:30:12.270Z,29.97
2023-03-11T19:34:13.648Z,29.23
2023-03-11T19:38:14.992Z,29.52
2023-03-11T19:42:16.345Z,29.60
2023-03-11T19:46:20.464Z,29.94
2023-03-11T19:50:22.564Z,29.84
2023-03-11T19:54:24.009Z,30.01
2023-03-11T19:58:30.231Z,30.18
2023-03-11T20:02:32.221Z,30.25
2023-03-11T20:06:34.031Z,29.68
2023-03-11T20:10:40.544Z,30.52
2023-03-11T20:14:42.855Z,29.75
2023-03-11T20:18:44.516Z,30.21
2023-03-11T20:22:45.876Z,30.20
2023-03-11T20:26:48.840Z,30.11
2023-03-11T20:30:52.061Z,30.04
2023-03-11T20:34:53.473Z,29.94
2023-03-11T20:38:56.128Z,30.27
2023-03-11T20:42:57.605Z,29.97
2023-03-11T20:46:59.240Z,30.52
2023-03-11T20:51:13.705Z,30.57
2023-03-11T20:55:15.209Z,30.50
2023-03-11T20:59:16.898Z,30.82
2023-03-11T21:03:18.467Z,31.54
2023-03-11T21:07:19.870Z,31.71
2023-03-11T21:11:22.138Z,31.63
2023-03-11T21:15:23.551Z,31.37
2023-03-11T21:19:25.008Z,31.27
2023-03-11T21:23:26.492Z,31.41
2023-03-11T21:27:28.044Z,31.46
2023-03-11T21:31:30.009Z,32.11
2023-03-11T21:35:34.335Z,31.63
2023-03-11T21:39:35.826Z,32.61
2023-03-11T21:43:38.953Z,32.92
2023-03-11T21:47:40.524Z,32.99
2023-03-11T21:51:41.868Z,33.77
2023-03-11T21:55:43.531Z,34.03
2023-03-11T21:59:45.004Z,34.08
2023-03-11T22:03:47.946Z,33.81
2023-03-11T22:07:49.564Z,34.41
2023-03-11T22:11:51.158Z,33.85
2023-03-11T22:15:52.827Z,34.03
2023-03-11T22:19:54.393Z,35.01
2023-03-11T22:23:55.785Z,34.44
2023-03-11T22:27:57.166Z,34.39
2023-03-11T22:31:58.602Z,33.91
2023-03-11T22:36:02.031Z,34.40
2023-03-11T22:40:07.493Z,34.42
2023-03-11T22:44:08.858Z,33.79
2023-03-11T22:48:10.229Z,34.32
2023-03-11T22:52:11.606Z,33.84
2023-03-11T22:56:14.985Z,34.65
2023-03-11T23:00:20.822Z,34.27
2023-03-11T23:04:22.276Z,33.69
2023-03-11T23:08:23.761Z,33.41
2023-03-11T23:12:25.233Z,33.56
2023-03-11T23:16:26.648Z,32.90
2023-03-11T23:20:28.245Z,32.88
2023-03-11T23:24:29.716Z,32.48
2023-03-11T23:28:31.150Z,32.55
2023-03-11T23:32:32.799Z,32.69
2023-03-11T23:36:34.373Z,32.18
2023-03-11T23:40:35.750Z,31.97
2023-03-11T23:44:37.129Z,32.31
2023-03-11T23:48:38.802Z,32.52
2023-03-11T23:52:40.143Z,32.42
2023-03-11T23:56:43.544Z,32.65
